Time;durP1;ratioP1;P1;durP2;ratioP2;P2;SDS_P1;SDS_P2;PMS_P1;PMS_P2;Temp;Humidity;BMP_temperature;BMP_pressure;BME280_temperature;BME280_humidity;BME280_pressure;Samples;Min_cycle;Max_cycle;Signal;HPM_P1;HPM_P2
2022/11/25 00:00:47;;;;;;;6.13;3.53;;;;;;;7.73;100.00;100652.69;5005998;28;20433;-67
2022/11/25 00:03:13;;;;;;;5.90;3.47;;;;;;;7.72;100.00;100647.66;5007809;28;20454;-68
2022/11/25 00:05:38;;;;;;;5.82;3.53;;;;;;;7.73;100.00;100652.69;5007526;28;20033;-67
2022/11/25 00:08:04;;;;;;;5.15;3.38;;;;;;;7.77;100.00;100652.78;5003012;28;20047;-66
2022/11/25 00:10:29;;;;;;;8.38;4.18;;;;;;;7.81;100.00;100656.38;5009263;28;20030;-68
2022/11/25 00:12:55;;;;;;;7.38;4.07;;;;;;;7.68;100.00;100649.47;5006141;28;20061;-66
2022/11/25 00:15:20;;;;;;;7.88;4.95;;;;;;;7.73;100.00;100652.69;5008725;28;20042;-66
2022/11/25 00:17:46;;;;;;;11.35;4.25;;;;;;;7.90;100.00;100646.31;5008270;28;20030;-66
2022/11/25 00:20:11;;;;;;;9.75;5.13;;;;;;;7.66;100.00;100649.78;5006034;28;20038;-66
2022/11/25 00:22:37;;;;;;;6.53;3.60;;;;;;;7.71;100.00;100659.50;5032971;28;20037;-67
2022/11/25 00:25:03;;;;;;;11.52;4.75;;;;;;;7.58;100.00;100648.00;5005471;28;20038;-68
2022/11/25 00:27:28;;;;;;;7.88;4.18;;;;;;;7.76;100.00;100654.69;5010478;28;20065;-67
2022/11/25 00:29:53;;;;;;;8.73;3.70;;;;;;;7.78;100.00;100643.66;5011421;28;20034;-67
2022/11/25 00:32:19;;;;;;;5.32;3.28;;;;;;;7.77;100.00;100639.41;5010234;28;20069;-67
2022/11/25 00:34:44;;;;;;;8.20;3.67;;;;;;;7.91;100.00;100643.31;5007349;28;20164;-66
2022/11/25 00:37:10;;;;;;;12.05;5.45;;;;;;;7.70;100.00;100644.53;5010443;28;20030;-66
2022/11/25 00:39:36;;;;;;;5.13;2.92;;;;;;;7.67;100.00;100639.84;5011108;28;20045;-67
2022/11/25 00:44:47;;;;;;;9.23;4.97;;;;;;;7.73;100.00;100646.53;5004165;28;20037;-67
2022/11/25 00:47:18;;;;;;;8.95;4.45;;;;;;;7.65;100.00;100652.78;5000945;28;20022;-68
2022/11/25 00:49:53;;;;;;;8.18;5.13;;;;;;;7.75;100.00;100655.03;5024022;28;20153;-67
2022/11/25 00:52:21;;;;;;;8.52;3.88;;;;;;;7.79;100.00;100654.03;5011209;28;20038;-68
2022/11/25 00:54:48;;;;;;;8.55;3.88;;;;;;;7.86;100.00;100648.09;5010206;28;20037;-68
2022/11/25 00:57:15;;;;;;;9.68;4.63;;;;;;;7.93;100.00;100653.69;5003484;28;20076;-68
2022/11/25 00:59:40;;;;;;;5.65;3.67;;;;;;;7.88;100.00;100654.69;5009624;28;20398;-68
2022/11/25 01:02:06;;;;;;;10.00;4.13;;;;;;;7.84;100.00;100650.34;5006659;28;20034;-67
2022/11/25 01:04:32;;;;;;;7.93;3.50;;;;;;;7.90;100.00;100651.66;5008134;28;20442;-68
2022/11/25 01:06:58;;;;;;;8.00;3.83;;;;;;;7.75;100.00;100649.66;5008486;28;20390;-69
2022/11/25 01:09:25;;;;;;;12.20;4.88;;;;;;;7.57;100.00;100635.72;5006812;28;20072;-67
2022/11/25 01:11:51;;;;;;;7.55;4.18;;;;;;;7.70;100.00;100636.50;5007312;28;20030;-68
2022/11/25 01:14:17;;;;;;;6.80;3.88;;;;;;;7.80;100.00;100639.50;5014302;28;20048;-68
2022/11/25 01:16:45;;;;;;;8.30;3.88;;;;;;;7.81;100.00;100630.34;5011780;28;20061;-67
2022/11/25 01:19:11;;;;;;;5.65;3.60;;;;;;;7.82;100.00;100628.47;5003420;28;20057;-68
2022/11/25 01:21:38;;;;;;;6.97;4.45;;;;;;;7.89;100.00;100623.31;5009576;28;20422;-67
2022/11/25 01:24:05;;;;;;;8.68;4.05;;;;;;;7.84;100.00;100628.91;5008684;28;20076;-65
2022/11/25 01:26:33;;;;;;;7.57;4.45;;;;;;;7.82;100.00;100633.81;5008200;28;20022;-68
2022/11/25 01:29:04;;;;;;;9.88;4.18;;;;;;;7.82;100.00;100620.41;5008600;28;20034;-67
2022/11/25 01:31:34;;;;;;;6.47;3.83;;;;;;;7.82;100.00;100617.75;5003418;28;20080;-66
2022/11/25 01:34:03;;;;;;;5.55;3.83;;;;;;;7.75;100.00;100615.63;5024939;28;20033;-65
2022/11/25 01:36:29;;;;;;;9.90;4.63;;;;;;;7.77;100.00;100631.34;5009921;28;20403;-65
2022/11/25 01:38:58;;;;;;;11.35;5.25;;;;;;;7.69;100.00;100638.41;5009051;28;20029;-67
2022/11/25 01:41:25;;;;;;;12.00;5.10;;;;;;;7.68;100.00;100638.75;5008881;28;20029;-67
2022/11/25 01:44:21;;;;;;;11.38;4.22;;;;;;;7.55;100.00;100642.53;5008868;28;20038;-66
2022/11/25 01:47:06;;;;;;;10.65;4.50;;;;;;;7.62;100.00;100627.47;5004848;28;20087;-66
2022/11/25 01:49:48;;;;;;;12.32;4.22;;;;;;;7.55;100.00;100623.78;5001079;28;20030;-67
2022/11/25 01:52:26;;;;;;;6.18;3.40;;;;;;;7.65;100.00;100626.00;5008810;28;20029;-67
2022/11/25 01:54:59;;;;;;;14.68;4.70;;;;;;;7.36;100.00;100623.53;5008594;28;20371;-65
2022/11/25 01:57:52;;;;;;;8.57;4.18;;;;;;;7.45;100.00;100624.22;5008854;28;20048;-65
2022/11/25 02:00:18;;;;;;;7.68;2.92;;;;;;;7.54;100.00;100614.16;5001387;28;20046;-69
2022/11/25 02:02:46;;;;;;;9.38;4.13;;;;;;;7.48;100.00;100605.56;5022982;28;20089;-66
2022/11/25 02:05:16;;;;;;;6.95;3.42;;;;;;;7.55;100.00;100605.78;5009949;28;20053;-68
2022/11/25 02:07:45;;;;;;;8.23;4.43;;;;;;;7.55;100.00;100607.72;5009541;28;20030;-68
2022/11/25 02:10:15;;;;;;;9.15;3.92;;;;;;;7.56;100.00;100601.22;5005915;28;20530;-67
2022/11/25 02:12:44;;;;;;;9.60;3.22;;;;;;;7.57;100.00;100602.78;5005044;28;20560;-67
2022/11/25 02:15:11;;;;;;;9.32;4.32;;;;;;;7.56;100.00;100595.84;5005553;28;20040;-68
2022/11/25 02:17:37;;;;;;;9.68;3.78;;;;;;;7.53;100.00;100597.31;4988441;28;20065;-67
2022/11/25 02:20:08;;;;;;;6.10;3.97;;;;;;;7.52;100.00;100600.31;5001697;28;20482;-67
2022/11/25 02:22:47;;;;;;;10.75;4.32;;;;;;;7.57;100.00;100616.19;5004532;28;20406;-66
2022/11/25 02:25:15;;;;;;;8.52;3.95;;;;;;;7.52;100.00;100608.34;5008626;28;20040;-67
2022/11/25 02:27:45;;;;;;;6.55;3.20;;;;;;;7.43;100.00;100621.09;5005565;28;20030;-66
2022/11/25 02:30:10;;;;;;;8.32;3.72;;;;;;;7.53;100.00;100621.41;5008358;28;20056;-68
2022/11/25 02:32:42;;;;;;;8.82;4.38;;;;;;;7.56;100.00;100619.97;5008112;28;20553;-67
2022/11/25 02:35:27;;;;;;;9.65;4.85;;;;;;;7.50;100.00;100613.28;5000858;28;20048;-69
2022/11/25 02:37:57;;;;;;;5.90;3.08;;;;;;;7.54;100.00;100614.16;5022444;28;20037;-67
2022/11/25 02:40:24;;;;;;;11.05;4.18;;;;;;;7.55;100.00;100611.16;5008532;28;20062;-66
2022/11/25 02:42:55;;;;;;;8.90;4.60;;;;;;;7.63;100.00;100612.16;5001744;28;20026;-66
2022/11/25 02:45:30;;;;;;;6.28;3.63;;;;;;;7.61;100.00;100614.38;5017663;28;20033;-67
2022/11/25 02:47:58;;;;;;;7.30;3.88;;;;;;;7.63;100.00;100612.94;5007548;28;20029;-67
2022/11/25 02:50:24;;;;;;;9.75;4.05;;;;;;;7.60;100.00;100604.78;5007863;28;20521;-68
2022/11/25 02:52:49;;;;;;;6.00;3.42;;;;;;;7.54;100.00;100614.94;5004675;28;20030;-68
2022/11/25 02:55:15;;;;;;;7.18;3.88;;;;;;;7.56;100.00;100604.69;5020755;28;20045;-67
2022/11/25 02:57:40;;;;;;;12.05;4.82;;;;;;;7.57;100.00;100608.16;5007500;28;20036;-67
2022/11/25 03:00:06;;;;;;;7.80;3.80;;;;;;;7.55;100.00;100618.41;5004757;28;20393;-66
2022/11/25 03:02:32;;;;;;;7.10;3.85;;;;;;;7.57;100.00;100614.28;5010701;28;20034;-66
2022/11/25 03:05:00;;;;;;;8.13;3.65;;;;;;;7.60;100.00;100623.53;5011428;28;20398;-67
2022/11/25 03:07:25;;;;;;;6.57;3.42;;;;;;;7.54;100.00;100635.59;5009293;28;20108;-66
2022/11/25 03:09:51;;;;;;;10.50;4.65;;;;;;;7.51;100.00;100630.91;5011467;28;20064;-66
2022/11/25 03:12:17;;;;;;;6.82;3.83;;;;;;;7.54;100.00;100627.56;5011497;28;20065;-67
2022/11/25 03:14:43;;;;;;;11.98;5.07;;;;;;;7.49;100.00;100635.84;5010490;28;20056;-66
2022/11/25 03:17:13;;;;;;;6.18;3.42;;;;;;;7.59;100.00;100641.50;5007594;28;20105;-67
2022/11/25 03:19:39;;;;;;;8.40;4.78;;;;;;;7.57;100.00;100641.06;5010463;28;20093;-66
2022/11/25 03:22:05;;;;;;;6.00;4.03;;;;;;;7.70;100.00;100642.66;5011745;28;20034;-67
2022/11/25 03:24:32;;;;;;;5.53;3.63;;;;;;;7.53;100.00;100642.09;5011940;28;20037;-67
2022/11/25 03:26:58;;;;;;;13.90;4.00;;;;;;;7.51;100.00;100649.69;5010608;28;20022;-69
2022/11/25 03:29:23;;;;;;;8.93;4.57;;;;;;;7.45;100.00;100646.44;5012934;28;20041;-66
2022/11/25 03:31:49;;;;;;;6.78;3.85;;;;;;;7.27;100.00;100645.84;5004263;28;20041;-66
2022/11/25 03:34:14;;;;;;;6.57;3.47;;;;;;;7.28;100.00;100639.38;5010937;28;20060;-67
2022/11/25 03:36:40;;;;;;;7.43;3.85;;;;;;;7.30;100.00;100631.00;5011263;28;20083;-67
2022/11/25 03:39:07;;;;;;;9.20;3.55;;;;;;;7.34;100.00;100623.84;5010626;28;20500;-67
2022/11/25 03:41:34;;;;;;;10.55;4.28;;;;;;;7.39;100.00;100628.22;5010858;28;20026;-66
2022/11/25 03:44:01;;;;;;;7.25;3.60;;;;;;;7.37;100.00;100631.25;5012286;28;20040;-66
2022/11/25 03:46:27;;;;;;;6.35;3.42;;;;;;;7.39;100.00;100641.63;4993115;28;20088;-66
2022/11/25 03:48:53;;;;;;;7.45;3.92;;;;;;;7.38;100.00;100637.38;5006350;28;20034;-67
2022/11/25 03:51:19;;;;;;;9.00;4.72;;;;;;;7.32;100.00;100634.91;5006169;28;20037;-66
2022/11/25 03:53:44;;;;;;;5.97;3.20;;;;;;;7.37;100.00;100641.97;5011173;28;20064;-66
2022/11/25 03:56:10;;;;;;;8.75;3.63;;;;;;;7.42;100.00;100639.06;5034355;23;20096;-70
2022/11/25 03:58:35;;;;;;;5.18;3.28;;;;;;;7.26;100.00;100632.78;4999418;28;20133;-71
2022/11/25 04:01:03;;;;;;;8.52;3.85;;;;;;;7.15;100.00;100637.00;5000848;28;20038;-69
2022/11/25 04:03:28;;;;;;;6.97;3.70;;;;;;;7.23;100.00;100631.56;4996338;28;20507;-70
2022/11/25 04:05:57;;;;;;;8.07;3.70;;;;;;;7.24;100.00;100632.31;4993550;28;20057;-69
2022/11/25 04:08:23;;;;;;;8.48;2.85;;;;;;;7.27;100.00;100631.66;4989374;28;20041;-69
2022/11/25 04:10:49;;;;;;;5.05;2.80;;;;;;;7.29;100.00;100634.81;4981755;28;20080;-69
2022/11/25 04:13:19;;;;;;;12.02;4.20;;;;;;;7.30;100.00;100637.13;4976700;28;20042;-69
2022/11/25 04:18:26;;;;;;;7.07;3.30;;;;;;;7.24;100.00;100640.34;5577476;23;20069;-69
2022/11/25 04:20:54;;;;;;;6.45;3.25;;;;;;;7.26;100.00;100636.25;5001337;28;20559;-69
2022/11/25 04:23:20;;;;;;;6.65;3.47;;;;;;;7.12;100.00;100646.47;5030026;22;20054;-65
2022/11/25 04:25:58;;;;;;;5.53;3.10;;;;;;;7.13;100.00;100637.34;5025884;28;20498;-65
2022/11/25 04:28:32;;;;;;;4.40;2.90;;;;;;;7.20;100.00;100642.16;5005189;28;20056;-65
2022/11/25 04:30:58;;;;;;;8.05;3.35;;;;;;;7.13;100.00;100636.56;5011058;28;20026;-65
2022/11/25 04:33:24;;;;;;;6.13;3.05;;;;;;;7.17;100.00;100638.25;5014724;28;20085;-65
2022/11/25 04:35:49;;;;;;;6.07;3.08;;;;;;;7.12;100.00;100632.31;4998464;28;20033;-65
2022/11/25 04:38:15;;;;;;;8.70;3.90;;;;;;;7.14;100.00;100620.16;5013217;28;20060;-66
2022/11/25 04:40:41;;;;;;;7.45;3.40;;;;;;;7.11;100.00;100626.19;5010092;28;20053;-65
2022/11/25 04:43:15;;;;;;;8.00;3.83;;;;;;;7.12;100.00;100617.03;5009120;28;20453;-66
2022/11/25 04:45:49;;;;;;;7.50;3.33;;;;;;;7.12;100.00;100614.34;5014447;28;20017;-65
2022/11/25 04:48:15;;;;;;;6.63;3.45;;;;;;;7.12;100.00;100619.69;5001045;28;20667;-66
2022/11/25 04:50:40;;;;;;;7.43;3.55;;;;;;;7.12;100.00;100625.06;5009513;28;20056;-65
2022/11/25 04:53:11;;;;;;;4.93;3.20;;;;;;;7.11;100.00;100626.19;5008654;28;20505;-65
2022/11/25 04:55:38;;;;;;;8.57;3.63;;;;;;;7.05;100.00;100630.19;5017019;28;20073;-65
2022/11/25 04:58:08;;;;;;;5.35;2.95;;;;;;;7.02;100.00;100636.22;5007496;28;20032;-65
2022/11/25 05:00:35;;;;;;;5.40;3.13;;;;;;;7.01;100.00;100645.34;5010519;28;20050;-64
2022/11/25 05:03:02;;;;;;;4.05;2.80;;;;;;;7.02;100.00;100635.41;5006798;28;20061;-66
2022/11/25 05:05:30;;;;;;;5.05;2.95;;;;;;;7.07;99.99;100643.22;5006620;28;20494;-65
2022/11/25 05:07:56;;;;;;;8.52;3.92;;;;;;;7.06;100.00;100634.44;5008686;28;20032;-65
2022/11/25 05:10:21;;;;;;;6.43;3.97;;;;;;;7.03;99.94;100640.44;5009972;28;20038;-65
2022/11/25 05:12:48;;;;;;;5.38;2.90;;;;;;;6.99;100.00;100642.19;5007716;28;20030;-65
2022/11/25 05:15:20;;;;;;;8.52;3.28;;;;;;;7.03;100.00;100650.34;5004207;28;20037;-65
2022/11/25 05:17:46;;;;;;;9.00;3.78;;;;;;;6.96;100.00;100639.41;5009094;28;20061;-65
2022/11/25 05:20:13;;;;;;;11.85;3.58;;;;;;;6.97;100.00;100644.44;5007976;28;20041;-65
2022/11/25 05:22:38;;;;;;;6.55;3.47;;;;;;;6.88;100.00;100641.06;5005472;28;20037;-65
2022/11/25 05:25:06;;;;;;;4.75;2.42;;;;;;;7.00;100.00;100635.75;5004596;28;20169;-65
2022/11/25 05:27:36;;;;;;;3.47;2.58;;;;;;;7.01;100.00;100645.34;5008969;28;20039;-64
2022/11/25 05:30:07;;;;;;;5.30;3.08;;;;;;;7.04;100.00;100647.38;5003939;28;20081;-65
2022/11/25 05:32:32;;;;;;;5.40;3.25;;;;;;;7.05;100.00;100635.53;5022523;28;20080;-65
2022/11/25 05:35:00;;;;;;;7.18;3.72;;;;;;;7.02;100.00;100646.13;5006328;28;20528;-65
2022/11/25 05:37:26;;;;;;;5.85;2.83;;;;;;;7.02;100.00;100646.91;5008913;28;20030;-65
2022/11/25 05:39:58;;;;;;;5.20;2.90;;;;;;;7.03;100.00;100650.34;5009079;28;20041;-65
2022/11/25 05:42:47;;;;;;;7.80;2.97;;;;;;;7.02;100.00;100654.16;4994958;28;20038;-65
2022/11/25 05:45:12;;;;;;;8.13;3.00;;;;;;;6.97;100.00;100641.75;5007557;28;20536;-65
2022/11/25 05:47:39;;;;;;;10.40;2.88;;;;;;;6.99;100.00;100646.78;5007734;28;20083;-65
2022/11/25 05:50:06;;;;;;;2.92;2.03;;;;;;;7.01;100.00;100642.66;5005559;28;20525;-65
2022/11/25 05:52:32;;;;;;;5.82;2.80;;;;;;;6.99;100.00;100639.53;5008329;28;20379;-65
2022/11/25 05:55:00;;;;;;;3.92;2.42;;;;;;;6.95;100.00;100638.63;5026135;28;20502;-65
2022/11/25 05:57:27;;;;;;;2.67;2.08;;;;;;;6.97;99.77;100639.06;5009109;28;20177;-65
2022/11/25 05:59:59;;;;;;;5.43;3.17;;;;;;;7.00;100.00;100638.44;5001856;28;20030;-65
2022/11/25 06:02:40;;;;;;;5.90;2.45;;;;;;;7.03;100.00;100639.66;5006836;28;20049;-65
2022/11/25 06:05:06;;;;;;;5.57;2.83;;;;;;;7.05;100.00;100630.19;5006376;28;20049;-65
2022/11/25 06:07:31;;;;;;;2.92;1.92;;;;;;;7.03;100.00;100632.41;5004285;28;20033;-66
2022/11/25 06:09:57;;;;;;;5.35;2.05;;;;;;;7.00;99.91;100627.72;5004345;28;20037;-65
2022/11/25 06:12:22;;;;;;;3.95;2.38;;;;;;;7.07;99.72;100625.28;5003236;28;20026;-65
2022/11/25 06:14:50;;;;;;;2.75;1.98;;;;;;;7.08;99.83;100632.19;5001264;28;20041;-65
2022/11/25 06:17:36;;;;;;;3.92;2.28;;;;;;;7.03;100.00;100627.06;5016597;28;20049;-66
2022/11/25 06:20:16;;;;;;;6.90;2.63;;;;;;;7.07;99.75;100624.47;4981288;28;20083;-65
2022/11/25 06:22:42;;;;;;;4.28;2.42;;;;;;;7.08;99.90;100618.03;4980188;28;20046;-66
2022/11/25 06:25:08;;;;;;;8.88;2.75;;;;;;;7.09;99.72;100620.38;4969071;28;20407;-65
2022/11/25 06:27:35;;;;;;;3.28;2.25;;;;;;;7.01;100.00;100623.91;4961866;28;20030;-65
2022/11/25 06:30:03;;;;;;;4.18;2.63;;;;;;;7.05;100.00;100621.34;4981542;28;20038;-65
2022/11/25 06:32:28;;;;;;;7.05;2.65;;;;;;;7.03;100.00;100615.56;4980151;28;20026;-65
2022/11/25 06:35:12;;;;;;;7.82;3.92;;;;;;;6.95;99.91;100619.13;4978811;28;20130;-65
2022/11/25 06:37:46;;;;;;;3.20;2.45;;;;;;;6.91;100.00;100618.97;4975400;28;20049;-65
2022/11/25 06:40:12;;;;;;;6.13;2.25;;;;;;;6.79;99.97;100616.28;4987097;28;20042;-65
2022/11/25 06:42:38;;;;;;;7.32;3.33;;;;;;;6.82;99.95;100634.34;4986462;28;20042;-65
2022/11/25 06:45:04;;;;;;;4.63;2.75;;;;;;;6.71;100.00;100625.19;4981328;28;20054;-65
2022/11/25 06:47:30;;;;;;;4.80;2.30;;;;;;;6.61;100.00;100628.25;4986471;28;20055;-67
2022/11/25 06:49:55;;;;;;;7.05;2.65;;;;;;;6.56;100.00;100636.50;4984481;28;20046;-65
2022/11/25 06:52:21;;;;;;;3.85;2.15;;;;;;;6.58;99.96;100636.16;4982905;28;20571;-65
2022/11/25 06:54:46;;;;;;;4.90;2.85;;;;;;;6.50;100.00;100653.06;4979109;28;20585;-65
2022/11/25 06:57:16;;;;;;;5.53;3.17;;;;;;;6.49;100.00;100649.59;5001285;28;20046;-65
2022/11/25 06:59:41;;;;;;;5.95;1.90;;;;;;;6.62;100.00;100659.22;5011343;28;20044;-65
2022/11/25 07:02:11;;;;;;;2.20;1.67;;;;;;;6.74;99.74;100656.63;5013719;28;20046;-65
2022/11/25 07:04:36;;;;;;;3.40;1.25;;;;;;;6.77;99.85;100655.97;5007977;28;20125;-65
2022/11/25 07:07:02;;;;;;;4.78;2.10;;;;;;;6.82;99.54;100647.72;5012042;28;20121;-65
2022/11/25 07:09:28;;;;;;;4.07;2.20;;;;;;;6.86;99.77;100653.19;5008331;28;20059;-65
2022/11/25 07:11:53;;;;;;;4.00;1.55;;;;;;;6.94;99.63;100655.81;5011668;28;20034;-65
2022/11/25 07:14:19;;;;;;;3.20;1.65;;;;;;;7.01;100.00;100655.25;5014410;28;20037;-65
2022/11/25 07:16:45;;;;;;;3.92;1.90;;;;;;;7.06;99.94;100652.38;5014216;28;20079;-65
2022/11/25 07:19:34;;;;;;;2.08;1.77;;;;;;;7.12;99.52;100656.41;5010261;28;20583;-65
2022/11/25 07:22:02;;;;;;;5.47;2.10;;;;;;;7.16;99.86;100660.75;4988614;28;20112;-65
2022/11/25 07:24:28;;;;;;;4.90;2.63;;;;;;;7.22;99.19;100662.13;4989874;28;20442;-65
2022/11/25 07:26:53;;;;;;;3.03;2.15;;;;;;;7.20;99.70;100668.94;4989634;28;20045;-65
2022/11/25 07:29:19;;;;;;;4.43;2.22;;;;;;;7.25;99.33;100666.81;4988069;28;20084;-65
2022/11/25 07:31:45;;;;;;;2.75;2.33;;;;;;;7.19;99.61;100673.50;4990161;28;20076;-65
2022/11/25 07:34:16;;;;;;;5.47;2.83;;;;;;;7.18;99.79;100674.59;4989010;28;20045;-65
2022/11/25 07:36:42;;;;;;;4.32;2.60;;;;;;;7.17;99.88;100682.97;4988478;28;20046;-65
2022/11/25 07:39:12;;;;;;;6.63;2.20;;;;;;;7.07;100.00;100696.78;4990174;28;20049;-65
2022/11/25 07:41:39;;;;;;;5.07;2.55;;;;;;;7.10;100.00;100704.91;4989953;28;20073;-65
2022/11/25 07:44:07;;;;;;;3.53;1.90;;;;;;;7.08;100.00;100685.72;4988414;28;20399;-65
2022/11/25 07:46:46;;;;;;;7.70;2.28;;;;;;;7.18;100.00;100701.38;4989531;28;20034;-65
2022/11/25 07:49:15;;;;;;;6.53;2.08;;;;;;;7.18;100.00;100704.06;4989592;28;20169;-65
2022/11/25 07:51:52;;;;;;;2.47;1.85;;;;;;;7.30;100.00;100690.72;4990080;28;20034;-65
2022/11/25 07:54:19;;;;;;;7.93;2.58;;;;;;;7.37;100.00;100684.03;4990024;28;20487;-65
2022/11/25 07:56:44;;;;;;;2.53;2.10;;;;;;;7.39;99.45;100689.84;4988066;28;20450;-65
2022/11/25 07:59:16;;;;;;;3.95;2.20;;;;;;;7.37;99.62;100684.81;4998006;28;21366;-65
2022/11/25 08:01:42;;;;;;;7.45;2.42;;;;;;;7.38;99.59;100689.03;5010077;28;20513;-65
2022/11/25 08:04:11;;;;;;;3.47;2.22;;;;;;;7.36;99.36;100691.28;5010816;28;20036;-65
2022/11/25 08:06:44;;;;;;;4.32;2.63;;;;;;;7.47;99.43;100675.56;5008644;28;20026;-65
2022/11/25 08:09:12;;;;;;;3.53;2.20;;;;;;;7.46;99.28;100682.81;5006446;28;20029;-65
2022/11/25 08:11:38;;;;;;;8.07;2.45;;;;;;;7.45;99.61;100680.47;5010149;28;20048;-65
2022/11/25 08:14:09;;;;;;;3.92;2.05;;;;;;;7.50;99.60;100680.25;5010196;28;20041;-65
2022/11/25 08:16:34;;;;;;;2.20;1.75;;;;;;;7.49;99.50;100684.81;5008586;28;20056;-65
2022/11/25 08:19:03;;;;;;;3.92;2.15;;;;;;;7.51;99.22;100703.25;5009457;28;20037;-65
2022/11/25 08:21:28;;;;;;;3.35;2.25;;;;;;;7.44;100.00;100703.00;5003325;28;20121;-65
2022/11/25 08:23:54;;;;;;;7.93;2.88;;;;;;;7.49;99.65;100705.50;5003242;28;20517;-65
2022/11/25 08:26:22;;;;;;;5.03;2.10;;;;;;;7.55;99.47;100704.16;5005608;28;20575;-65
2022/11/25 08:28:48;;;;;;;4.85;2.55;;;;;;;7.51;99.26;100712.06;5008193;28;20501;-65
2022/11/25 08:31:23;;;;;;;6.00;2.45;;;;;;;7.57;99.78;100704.63;5006253;28;20038;-65
2022/11/25 08:33:50;;;;;;;2.72;1.60;;;;;;;7.73;99.31;100708.19;5007762;28;20398;-65
2022/11/25 08:36:16;;;;;;;4.85;2.58;;;;;;;7.64;99.19;100710.19;5011580;28;20038;-65
2022/11/25 08:38:42;;;;;;;3.20;1.58;;;;;;;7.68;100.00;100705.72;5011496;28;20041;-65
2022/11/25 08:41:14;;;;;;;4.00;2.22;;;;;;;7.72;99.32;100701.28;5012036;28;20107;-65
2022/11/25 08:43:40;;;;;;;3.70;1.75;;;;;;;7.59;99.78;100707.75;5007278;28;20120;-65
2022/11/25 08:46:10;;;;;;;6.25;2.53;;;;;;;7.61;99.51;100694.75;5007885;28;20569;-65
2022/11/25 08:48:37;;;;;;;6.28;1.83;;;;;;;7.75;100.00;100695.22;5009676;28;20032;-65
2022/11/25 08:51:08;;;;;;;5.25;2.35;;;;;;;7.85;99.79;100706.31;5008413;28;20029;-65
2022/11/25 08:53:33;;;;;;;2.72;2.30;;;;;;;7.93;99.57;100701.94;5004916;28;20149;-65
2022/11/25 08:55:58;;;;;;;2.35;1.55;;;;;;;7.86;99.55;100705.19;5004748;28;20137;-65
2022/11/25 08:58:24;;;;;;;4.78;2.10;;;;;;;7.90;99.28;100714.13;5006603;28;20030;-65
2022/11/25 09:00:52;;;;;;;4.15;2.15;;;;;;;7.87;99.52;100705.97;5006573;28;20033;-65
2022/11/25 09:03:18;;;;;;;6.15;2.30;;;;;;;7.97;99.04;100709.00;5004995;28;20745;-65
2022/11/25 09:05:43;;;;;;;4.20;2.05;;;;;;;7.88;98.75;100707.50;5006650;28;20101;-65
2022/11/25 09:08:10;;;;;;;3.45;2.60;;;;;;;7.79;100.00;100704.16;5007056;28;20054;-65
2022/11/25 09:10:36;;;;;;;2.97;1.92;;;;;;;7.86;100.00;100704.38;5009099;28;20054;-65
2022/11/25 09:13:02;;;;;;;4.47;1.73;;;;;;;7.78;100.00;100714.09;5005441;28;20034;-65
2022/11/25 09:15:28;;;;;;;4.93;2.20;;;;;;;7.80;100.00;100709.19;5007006;28;20034;-65
2022/11/25 09:18:04;;;;;;;1.98;1.70;;;;;;;7.95;100.00;100710.44;5008215;28;20486;-65
2022/11/25 09:20:31;;;;;;;5.63;2.15;;;;;;;8.13;100.00;100711.75;5010493;28;20120;-65
2022/11/25 09:22:59;;;;;;;2.88;2.05;;;;;;;8.02;100.00;100710.66;5010644;28;20034;-65
2022/11/25 09:25:24;;;;;;;3.60;1.77;;;;;;;8.18;99.47;100711.53;5001076;28;20023;-65
2022/11/25 09:27:50;;;;;;;3.22;2.10;;;;;;;8.18;99.66;100720.38;5002351;28;20505;-65
2022/11/25 09:30:15;;;;;;;6.82;2.50;;;;;;;8.27;100.00;100727.53;5008870;28;20034;-65
2022/11/25 09:32:43;;;;;;;4.55;2.38;;;;;;;8.31;99.88;100734.56;5009580;28;20188;-65
2022/11/25 09:35:09;;;;;;;1.80;1.50;;;;;;;8.08;100.00;100730.75;5007626;28;20489;-65
2022/11/25 09:37:34;;;;;;;8.07;1.58;;;;;;;8.04;100.00;100736.03;5007622;28;20025;-65
2022/11/25 09:40:00;;;;;;;9.18;2.38;;;;;;;8.07;100.00;100734.56;5009395;28;20784;-65
2022/11/25 09:48:42;;;;;;;3.97;2.25;;;;;;;8.20;100.00;100744.19;5005101;28;20663;-65
2022/11/25 09:51:14;;;;;;;;;;;;;;;8.19;100.00;100739.91;4999945;28;20034;-65
2022/11/25 09:54:10;;;;;;;2.40;1.75;;;;;;;8.31;100.00;100729.22;5004968;28;20404;-65
2022/11/25 09:56:38;;;;;;;6.38;2.60;;;;;;;8.22;100.00;100744.63;5008483;28;20034;-65
2022/11/25 09:59:28;;;;;;;7.32;2.40;;;;;;;8.12;100.00;100737.81;5007261;28;20048;-65
2022/11/25 10:01:59;;;;;;;6.47;2.70;;;;;;;8.20;100.00;100746.84;5008234;28;20053;-65
2022/11/25 10:04:43;;;;;;;3.30;2.15;;;;;;;8.11;100.00;100736.22;5005239;28;20458;-65
2022/11/25 10:07:32;;;;;;;2.55;1.90;;;;;;;8.25;100.00;100741.28;5006658;28;20548;-65
2022/11/25 10:10:00;;;;;;;4.05;2.00;;;;;;;8.27;100.00;100749.78;5020855;28;20508;-65
2022/11/25 10:12:38;;;;;;;4.47;2.60;;;;;;;8.36;100.00;100747.78;5005001;28;20033;-65
2022/11/25 10:15:14;;;;;;;6.03;1.90;;;;;;;8.37;100.00;100746.66;5007767;28;20490;-65
2022/11/25 10:17:48;;;;;;;3.03;1.90;;;;;;;8.25;100.00;100738.59;5007452;28;20044;-65
2022/11/25 10:20:21;;;;;;;3.67;1.90;;;;;;;8.22;100.00;100739.25;5005526;28;20038;-65
2022/11/25 10:22:53;;;;;;;4.80;2.08;;;;;;;8.35;100.00;100746.19;5005638;28;20049;-65
2022/11/25 10:25:47;;;;;;;4.03;2.17;;;;;;;8.20;100.00;100747.66;5004414;28;20655;-65
2022/11/25 10:28:22;;;;;;;5.30;2.15;;;;;;;8.27;100.00;100751.66;5004325;28;20060;-65
2022/11/25 10:31:04;;;;;;;5.10;1.88;;;;;;;8.38;100.00;100756.25;5008795;28;20084;-65
2022/11/25 10:33:45;;;;;;;4.30;1.95;;;;;;;8.40;100.00;100754.00;5006480;28;20125;-65
2022/11/25 10:36:37;;;;;;;5.38;3.22;;;;;;;8.30;100.00;100748.34;5006473;28;20431;-65
2022/11/25 10:39:25;;;;;;;3.65;2.17;;;;;;;8.27;100.00;100757.81;5002372;28;20172;-65
2022/11/25 10:42:13;;;;;;;2.80;1.67;;;;;;;8.20;100.00;100755.69;4995645;28;20069;-65
2022/11/25 10:44:40;;;;;;;1.67;1.55;;;;;;;8.38;100.00;100750.88;5002111;28;20061;-65
2022/11/25 10:47:31;;;;;;;6.53;2.42;;;;;;;8.44;100.00;100754.16;5000998;28;20026;-65
2022/11/25 10:50:07;;;;;;;3.28;2.30;;;;;;;8.34;100.00;100747.34;5008195;28;20041;-66
2022/11/25 10:52:39;;;;;;;4.80;2.55;;;;;;;8.31;100.00;100749.88;5005534;28;20034;-65
2022/11/25 10:55:12;;;;;;;;;;;;;;;8.24;100.00;100753.13;5005222;28;20252;-65
2022/11/25 10:57:38;;;;;;;4.38;2.35;;;;;;;8.20;100.00;100752.22;5008865;28;19972;-65
2022/11/25 11:00:06;;;;;;;6.85;2.35;;;;;;;8.35;100.00;100756.16;5007250;28;20061;-65
2022/11/25 11:02:39;;;;;;;5.97;3.35;;;;;;;8.18;100.00;100759.81;5006401;28;20383;-65
2022/11/25 11:05:08;;;;;;;3.25;2.22;;;;;;;8.31;100.00;100749.88;5004234;28;20073;-65
2022/11/25 11:07:39;;;;;;;7.93;2.50;;;;;;;8.33;100.00;100764.53;5009786;28;20422;-65
2022/11/25 11:10:25;;;;;;;10.45;2.70;;;;;;;8.37;100.00;100757.38;5004061;28;20053;-65
2022/11/25 11:12:53;;;;;;;5.95;2.50;;;;;;;8.36;100.00;100755.84;5005324;28;20065;-65
2022/11/25 11:15:32;;;;;;;8.18;2.65;;;;;;;8.45;100.00;100747.63;5003469;28;20083;-65
2022/11/25 11:18:12;;;;;;;5.20;2.50;;;;;;;8.56;100.00;100760.25;5006535;28;20022;-65
2022/11/25 11:20:48;;;;;;;6.00;3.40;;;;;;;8.47;100.00;100761.50;5003551;28;20395;-65
2022/11/25 11:23:14;;;;;;;7.30;2.45;;;;;;;8.60;100.00;100758.47;5008728;28;20431;-65
2022/11/25 11:25:42;;;;;;;5.07;2.58;;;;;;;8.66;100.00;100764.38;5012166;28;20300;-65
2022/11/25 11:28:35;;;;;;;7.57;2.03;;;;;;;8.76;100.00;100766.59;5011105;28;20131;-65
2022/11/25 11:31:03;;;;;;;3.08;2.58;;;;;;;8.48;100.00;100766.53;5006953;28;20042;-66
2022/11/25 11:34:04;;;;;;;5.53;2.45;;;;;;;8.73;100.00;100773.41;5011632;28;20076;-66
2022/11/25 11:37:06;;;;;;;3.72;2.03;;;;;;;8.52;100.00;100761.25;5011770;28;20069;-65
2022/11/25 11:40:11;;;;;;;6.72;2.08;;;;;;;8.61;100.00;100767.31;5010109;28;20493;-65
2022/11/25 11:42:56;;;;;;;7.82;2.20;;;;;;;8.40;100.00;100769.34;5007240;28;20037;-65
2022/11/25 11:45:30;;;;;;;5.43;2.95;;;;;;;8.26;100.00;100764.31;5004273;28;20038;-65
2022/11/25 11:48:11;;;;;;;4.55;3.25;;;;;;;8.55;100.00;100766.75;5006336;28;20058;-65
2022/11/25 11:50:47;;;;;;;5.05;2.88;;;;;;;8.78;100.00;100764.34;5008144;28;20076;-65